This is the latest recevied weather packets stored in our database for station/object IU0KRR-10. If no packets are shown the sender has not sent any weather packets the latest 10 day(s).
| Time | Temp. | Humidity | Pressure | Rain* | Wind** | Luminosity | Snow |
|---|---|---|---|---|---|---|---|
| 1787467153 | 22.22° C | 46% | 877 hPa | - | - | - | - |
| 1787466253 | 21.67° C | 51% | 876.9 hPa | - | - | - | - |
| 1787465351 | 21.11° C | 51% | 876.9 hPa | - | - | - | - |
| 1787464451 | 20.56° C | 56% | 876.8 hPa | - | - | - | - |
| 1787463551 | 20° C | 59% | 876.8 hPa | - | - | - | - |
| 1787462650 | 19.44° C | 59% | 876.7 hPa | - | - | - | - |
| 1787461799 | 19.44° C | 60% | 876.8 hPa | - | - | - | - |
| 1787461750 | 19.44° C | 60% | 876.8 hPa | - | - | - | - |
| 1787460926 | 19.44° C | 62% | 876.5 hPa | - | - | - | - |
| 1787460889 | 19.44° C | 62% | 876.5 hPa | - | - | - | - |
| 1787460850 | 19.44° C | 62% | 876.5 hPa | - | - | - | - |
| 1787459948 | 18.89° C | 63% | 876.6 hPa | - | - | - | - |
| 1787459047 | 18.89° C | 62% | 876.4 hPa | - | - | - | - |
| 1787458200 | 18.89° C | 63% | 876.3 hPa | - | - | - | - |
| 1787458147 | 18.89° C | 63% | 876.3 hPa | - | - | - | - |
| 1787457246 | 18.89° C | 61% | 876.2 hPa | - | - | - | - |
| 1787456345 | 18.89° C | 60% | 876.2 hPa | - | - | - | - |
| 1787455444 | 18.89° C | 60% | 876 hPa | - | - | - | - |
| 1787454544 | 18.89° C | 57% | 876 hPa | - | - | - | - |
| 1787453643 | 18.89° C | 57% | 876.1 hPa | - | - | - | - |
| 1787452842 | 19.44° C | 57% | 876.1 hPa | - | - | - | - |
| 1787452742 | 19.44° C | 57% | 876.1 hPa | - | - | - | - |
| 1787451878 | 19.44° C | 57% | 876.2 hPa | - | - | - | - |
| 1787451841 | 19.44° C | 57% | 876.2 hPa | - | - | - | - |
| 1787450999 | 18.89° C | 57% | 876.2 hPa | - | - | - | - |
* Rain since midnight (hover to see other rain measurements)
** Current wind speed in m/s (hover to see current wind gust speed)